sensor_id;sensor_type;location;lat;lon;timestamp;P1;durP1;ratioP1;P2;durP2;ratioP2
13197;SDS011;6664;52.514;13.440;2023-01-09T00:00:46;8.00;;;5.83;;
13197;SDS011;6664;52.514;13.440;2023-01-09T00:03:32;8.50;;;5.47;;
13197;SDS011;6664;52.514;13.440;2023-01-09T00:06:18;7.37;;;5.47;;
13197;SDS011;6664;52.514;13.440;2023-01-09T00:09:03;9.40;;;5.60;;
13197;SDS011;6664;52.514;13.440;2023-01-09T00:11:49;7.23;;;5.47;;
13197;SDS011;6664;52.514;13.440;2023-01-09T00:14:35;9.90;;;7.00;;
13197;SDS011;6664;52.514;13.440;2023-01-09T00:17:21;8.23;;;5.97;;
13197;SDS011;6664;52.514;13.440;2023-01-09T00:20:07;6.87;;;4.97;;
13197;SDS011;6664;52.514;13.440;2023-01-09T00:22:53;12.60;;;6.60;;
13197;SDS011;6664;52.514;13.440;2023-01-09T00:25:40;9.90;;;7.03;;
13197;SDS011;6664;52.514;13.440;2023-01-09T00:28:26;8.93;;;6.03;;
13197;SDS011;6664;52.514;13.440;2023-01-09T00:31:14;9.27;;;5.60;;
13197;SDS011;6664;52.514;13.440;2023-01-09T00:34:05;9.07;;;5.73;;
13197;SDS011;6664;52.514;13.440;2023-01-09T00:36:54;10.40;;;5.57;;
13197;SDS011;6664;52.514;13.440;2023-01-09T00:39:40;10.33;;;7.70;;
13197;SDS011;6664;52.514;13.440;2023-01-09T00:42:29;12.07;;;7.20;;
13197;SDS011;6664;52.514;13.440;2023-01-09T00:45:19;14.03;;;7.23;;
13197;SDS011;6664;52.514;13.440;2023-01-09T00:48:13;8.73;;;5.60;;
13197;SDS011;6664;52.514;13.440;2023-01-09T00:51:08;11.60;;;6.73;;
13197;SDS011;6664;52.514;13.440;2023-01-09T00:53:53;7.57;;;5.93;;
13197;SDS011;6664;52.514;13.440;2023-01-09T00:56:41;7.37;;;6.43;;
13197;SDS011;6664;52.514;13.440;2023-01-09T00:59:27;12.10;;;6.90;;
13197;SDS011;6664;52.514;13.440;2023-01-09T01:02:13;7.00;;;5.83;;
13197;SDS011;6664;52.514;13.440;2023-01-09T01:05:01;10.03;;;6.63;;
13197;SDS011;6664;52.514;13.440;2023-01-09T01:08:09;10.43;;;6.23;;
13197;SDS011;6664;52.514;13.440;2023-01-09T01:11:02;9.50;;;6.00;;
13197;SDS011;6664;52.514;13.440;2023-01-09T01:13:50;6.93;;;5.57;;
13197;SDS011;6664;52.514;13.440;2023-01-09T01:16:35;11.00;;;6.20;;
13197;SDS011;6664;52.514;13.440;2023-01-09T01:19:23;10.90;;;6.70;;
13197;SDS011;6664;52.514;13.440;2023-01-09T01:22:11;8.77;;;6.40;;
13197;SDS011;6664;52.514;13.440;2023-01-09T01:24:56;10.13;;;7.57;;
13197;SDS011;6664;52.514;13.440;2023-01-09T01:27:45;11.37;;;7.10;;
13197;SDS011;6664;52.514;13.440;2023-01-09T01:30:30;9.60;;;6.90;;
13197;SDS011;6664;52.514;13.440;2023-01-09T01:33:19;11.07;;;6.40;;
13197;SDS011;6664;52.514;13.440;2023-01-09T01:36:10;8.80;;;6.20;;
13197;SDS011;6664;52.514;13.440;2023-01-09T01:38:55;9.27;;;5.70;;
13197;SDS011;6664;52.514;13.440;2023-01-09T01:41:41;10.90;;;7.67;;
13197;SDS011;6664;52.514;13.440;2023-01-09T01:50:42;10.33;;;6.53;;
13197;SDS011;6664;52.514;13.440;2023-01-09T01:53:37;11.07;;;6.47;;
13197;SDS011;6664;52.514;13.440;2023-01-09T01:56:30;11.90;;;7.93;;
13197;SDS011;6664;52.514;13.440;2023-01-09T01:59:27;11.90;;;7.57;;
13197;SDS011;6664;52.514;13.440;2023-01-09T02:02:24;11.23;;;7.00;;
13197;SDS011;6664;52.514;13.440;2023-01-09T02:05:17;13.33;;;8.13;;
13197;SDS011;6664;52.514;13.440;2023-01-09T02:08:03;9.40;;;7.57;;
13197;SDS011;6664;52.514;13.440;2023-01-09T02:10:50;11.20;;;7.70;;
13197;SDS011;6664;52.514;13.440;2023-01-09T02:13:40;9.57;;;6.87;;
13197;SDS011;6664;52.514;13.440;2023-01-09T02:38:09;13.40;;;7.87;;
13197;SDS011;6664;52.514;13.440;2023-01-09T02:41:12;13.07;;;7.63;;
13197;SDS011;6664;52.514;13.440;2023-01-09T02:44:11;11.07;;;8.10;;
13197;SDS011;6664;52.514;13.440;2023-01-09T02:47:01;12.07;;;8.27;;
13197;SDS011;6664;52.514;13.440;2023-01-09T02:49:48;11.60;;;7.30;;
13197;SDS011;6664;52.514;13.440;2023-01-09T03:01:54;15.30;;;8.40;;
13197;SDS011;6664;52.514;13.440;2023-01-09T03:07:51;9.27;;;7.43;;
13197;SDS011;6664;52.514;13.440;2023-01-09T03:11:01;14.00;;;9.10;;
13197;SDS011;6664;52.514;13.440;2023-01-09T03:13:54;11.97;;;8.13;;
13197;SDS011;6664;52.514;13.440;2023-01-09T03:16:45;17.03;;;8.37;;
13197;SDS011;6664;52.514;13.440;2023-01-09T03:19:32;10.90;;;7.33;;
13197;SDS011;6664;52.514;13.440;2023-01-09T03:22:19;13.60;;;8.20;;
13197;SDS011;6664;52.514;13.440;2023-01-09T03:25:07;13.07;;;8.40;;
13197;SDS011;6664;52.514;13.440;2023-01-09T03:27:55;14.30;;;8.10;;
13197;SDS011;6664;52.514;13.440;2023-01-09T03:30:44;12.50;;;7.90;;
13197;SDS011;6664;52.514;13.440;2023-01-09T03:33:32;12.87;;;8.53;;
13197;SDS011;6664;52.514;13.440;2023-01-09T03:36:18;10.90;;;7.70;;
13197;SDS011;6664;52.514;13.440;2023-01-09T03:39:04;12.30;;;8.30;;
13197;SDS011;6664;52.514;13.440;2023-01-09T03:41:50;11.40;;;8.10;;
13197;SDS011;6664;52.514;13.440;2023-01-09T03:44:39;10.63;;;7.70;;
13197;SDS011;6664;52.514;13.440;2023-01-09T03:47:24;16.60;;;8.83;;
13197;SDS011;6664;52.514;13.440;2023-01-09T03:50:10;15.30;;;8.70;;
13197;SDS011;6664;52.514;13.440;2023-01-09T03:52:55;11.43;;;7.27;;
13197;SDS011;6664;52.514;13.440;2023-01-09T03:55:45;12.37;;;8.40;;
13197;SDS011;6664;52.514;13.440;2023-01-09T03:58:31;10.00;;;7.87;;
13197;SDS011;6664;52.514;13.440;2023-01-09T04:01:16;12.57;;;8.13;;
13197;SDS011;6664;52.514;13.440;2023-01-09T04:04:02;9.90;;;7.73;;
13197;SDS011;6664;52.514;13.440;2023-01-09T04:06:48;7.83;;;6.77;;
13197;SDS011;6664;52.514;13.440;2023-01-09T04:09:36;10.90;;;7.50;;
13197;SDS011;6664;52.514;13.440;2023-01-09T04:12:24;13.60;;;7.40;;
13197;SDS011;6664;52.514;13.440;2023-01-09T04:15:10;10.57;;;7.50;;
13197;SDS011;6664;52.514;13.440;2023-01-09T04:17:56;10.17;;;6.70;;
13197;SDS011;6664;52.514;13.440;2023-01-09T04:20:41;10.87;;;7.40;;
13197;SDS011;6664;52.514;13.440;2023-01-09T04:23:30;10.20;;;6.50;;
13197;SDS011;6664;52.514;13.440;2023-01-09T04:26:16;14.03;;;7.70;;
13197;SDS011;6664;52.514;13.440;2023-01-09T04:29:01;11.07;;;7.23;;
13197;SDS011;6664;52.514;13.440;2023-01-09T04:31:49;8.80;;;6.53;;
13197;SDS011;6664;52.514;13.440;2023-01-09T04:34:38;11.13;;;7.57;;
13197;SDS011;6664;52.514;13.440;2023-01-09T04:37:23;9.97;;;7.33;;
13197;SDS011;6664;52.514;13.440;2023-01-09T04:40:09;13.33;;;8.10;;
13197;SDS011;6664;52.514;13.440;2023-01-09T04:42:55;9.53;;;7.23;;
13197;SDS011;6664;52.514;13.440;2023-01-09T04:45:41;8.00;;;6.13;;
13197;SDS011;6664;52.514;13.440;2023-01-09T04:48:27;7.67;;;6.50;;
13197;SDS011;6664;52.514;13.440;2023-01-09T04:51:12;10.90;;;8.13;;
13197;SDS011;6664;52.514;13.440;2023-01-09T04:53:58;14.30;;;8.50;;
13197;SDS011;6664;52.514;13.440;2023-01-09T04:56:43;10.30;;;7.23;;
13197;SDS011;6664;52.514;13.440;2023-01-09T04:59:29;8.67;;;7.27;;
13197;SDS011;6664;52.514;13.440;2023-01-09T05:02:14;13.60;;;8.00;;
13197;SDS011;6664;52.514;13.440;2023-01-09T05:05:03;10.77;;;6.77;;
13197;SDS011;6664;52.514;13.440;2023-01-09T05:07:49;10.50;;;7.23;;
13197;SDS011;6664;52.514;13.440;2023-01-09T05:10:35;10.50;;;6.03;;
13197;SDS011;6664;52.514;13.440;2023-01-09T05:13:20;13.13;;;8.23;;
13197;SDS011;6664;52.514;13.440;2023-01-09T05:16:06;10.23;;;6.77;;
13197;SDS011;6664;52.514;13.440;2023-01-09T05:18:55;8.10;;;7.07;;
13197;SDS011;6664;52.514;13.440;2023-01-09T05:21:41;10.80;;;7.80;;
13197;SDS011;6664;52.514;13.440;2023-01-09T05:24:31;11.17;;;7.10;;
13197;SDS011;6664;52.514;13.440;2023-01-09T05:27:22;9.30;;;6.60;;
13197;SDS011;6664;52.514;13.440;2023-01-09T05:30:08;13.20;;;7.30;;
13197;SDS011;6664;52.514;13.440;2023-01-09T05:32:54;9.07;;;6.70;;
13197;SDS011;6664;52.514;13.440;2023-01-09T05:35:40;9.87;;;6.90;;
13197;SDS011;6664;52.514;13.440;2023-01-09T05:38:25;8.73;;;6.80;;
13197;SDS011;6664;52.514;13.440;2023-01-09T05:41:11;8.40;;;7.00;;
13197;SDS011;6664;52.514;13.440;2023-01-09T05:43:56;11.53;;;7.37;;
13197;SDS011;6664;52.514;13.440;2023-01-09T05:46:44;9.70;;;6.90;;
13197;SDS011;6664;52.514;13.440;2023-01-09T05:49:29;9.67;;;6.47;;
13197;SDS011;6664;52.514;13.440;2023-01-09T05:52:17;14.33;;;7.97;;
13197;SDS011;6664;52.514;13.440;2023-01-09T05:55:03;7.87;;;6.03;;
13197;SDS011;6664;52.514;13.440;2023-01-09T05:57:49;12.93;;;6.70;;
13197;SDS011;6664;52.514;13.440;2023-01-09T06:00:37;7.40;;;6.50;;
13197;SDS011;6664;52.514;13.440;2023-01-09T06:03:22;11.40;;;6.90;;
13197;SDS011;6664;52.514;13.440;2023-01-09T06:06:07;11.47;;;6.73;;
13197;SDS011;6664;52.514;13.440;2023-01-09T06:08:55;10.43;;;7.00;;
13197;SDS011;6664;52.514;13.440;2023-01-09T06:11:41;10.37;;;7.10;;
13197;SDS011;6664;52.514;13.440;2023-01-09T06:14:27;10.17;;;6.60;;
13197;SDS011;6664;52.514;13.440;2023-01-09T06:17:15;11.20;;;7.00;;
13197;SDS011;6664;52.514;13.440;2023-01-09T06:20:03;12.13;;;7.40;;
13197;SDS011;6664;52.514;13.440;2023-01-09T06:22:49;11.47;;;7.10;;
13197;SDS011;6664;52.514;13.440;2023-01-09T06:25:35;9.70;;;6.17;;
13197;SDS011;6664;52.514;13.440;2023-01-09T06:28:23;10.60;;;6.90;;
13197;SDS011;6664;52.514;13.440;2023-01-09T06:31:09;10.20;;;6.63;;
13197;SDS011;6664;52.514;13.440;2023-01-09T06:33:55;11.80;;;7.23;;
13197;SDS011;6664;52.514;13.440;2023-01-09T06:36:41;11.13;;;6.77;;
13197;SDS011;6664;52.514;13.440;2023-01-09T06:39:29;13.13;;;7.37;;
13197;SDS011;6664;52.514;13.440;2023-01-09T06:42:17;16.70;;;8.17;;
13197;SDS011;6664;52.514;13.440;2023-01-09T06:45:06;8.00;;;6.60;;
13197;SDS011;6664;52.514;13.440;2023-01-09T06:47:52;9.47;;;6.00;;
13197;SDS011;6664;52.514;13.440;2023-01-09T06:50:37;10.80;;;7.03;;
13197;SDS011;6664;52.514;13.440;2023-01-09T06:53:23;10.63;;;7.97;;
13197;SDS011;6664;52.514;13.440;2023-01-09T06:56:09;9.83;;;6.97;;
13197;SDS011;6664;52.514;13.440;2023-01-09T06:58:54;10.73;;;7.87;;
13197;SDS011;6664;52.514;13.440;2023-01-09T07:01:40;11.37;;;6.80;;
13197;SDS011;6664;52.514;13.440;2023-01-09T07:04:25;11.30;;;6.93;;
13197;SDS011;6664;52.514;13.440;2023-01-09T07:07:12;12.27;;;7.70;;
13197;SDS011;6664;52.514;13.440;2023-01-09T07:10:02;21.03;;;7.83;;
13197;SDS011;6664;52.514;13.440;2023-01-09T07:12:51;10.50;;;8.13;;
13197;SDS011;6664;52.514;13.440;2023-01-09T07:15:36;11.20;;;7.13;;
13197;SDS011;6664;52.514;13.440;2023-01-09T07:18:23;9.57;;;6.93;;
13197;SDS011;6664;52.514;13.440;2023-01-09T07:21:09;9.43;;;6.77;;
13197;SDS011;6664;52.514;13.440;2023-01-09T07:23:54;10.13;;;6.57;;
13197;SDS011;6664;52.514;13.440;2023-01-09T07:26:40;10.43;;;7.50;;
13197;SDS011;6664;52.514;13.440;2023-01-09T07:29:27;9.00;;;6.40;;
13197;SDS011;6664;52.514;13.440;2023-01-09T07:32:14;14.57;;;8.30;;
13197;SDS011;6664;52.514;13.440;2023-01-09T07:34:59;12.30;;;6.87;;
13197;SDS011;6664;52.514;13.440;2023-01-09T07:37:49;11.17;;;7.23;;
13197;SDS011;6664;52.514;13.440;2023-01-09T07:40:35;11.80;;;7.20;;
13197;SDS011;6664;52.514;13.440;2023-01-09T07:43:22;7.00;;;6.10;;
13197;SDS011;6664;52.514;13.440;2023-01-09T07:46:08;7.70;;;6.60;;
13197;SDS011;6664;52.514;13.440;2023-01-09T07:48:54;12.20;;;7.07;;
13197;SDS011;6664;52.514;13.440;2023-01-09T07:51:40;10.80;;;7.10;;
13197;SDS011;6664;52.514;13.440;2023-01-09T07:54:27;10.60;;;7.10;;
13197;SDS011;6664;52.514;13.440;2023-01-09T07:57:16;9.10;;;6.60;;
13197;SDS011;6664;52.514;13.440;2023-01-09T08:00:02;10.13;;;6.90;;
13197;SDS011;6664;52.514;13.440;2023-01-09T08:02:51;12.03;;;7.20;;
13197;SDS011;6664;52.514;13.440;2023-01-09T08:05:39;13.53;;;6.73;;
13197;SDS011;6664;52.514;13.440;2023-01-09T08:08:27;9.50;;;6.20;;
13197;SDS011;6664;52.514;13.440;2023-01-09T08:11:13;10.67;;;7.37;;
13197;SDS011;6664;52.514;13.440;2023-01-09T08:14:03;8.23;;;6.50;;
13197;SDS011;6664;52.514;13.440;2023-01-09T08:16:51;11.90;;;7.53;;
13197;SDS011;6664;52.514;13.440;2023-01-09T08:19:38;10.00;;;6.40;;
13197;SDS011;6664;52.514;13.440;2023-01-09T08:22:24;11.47;;;6.90;;
13197;SDS011;6664;52.514;13.440;2023-01-09T08:25:10;8.73;;;6.23;;
13197;SDS011;6664;52.514;13.440;2023-01-09T08:27:57;9.07;;;6.47;;
13197;SDS011;6664;52.514;13.440;2023-01-09T08:30:43;11.57;;;7.43;;
13197;SDS011;6664;52.514;13.440;2023-01-09T08:33:29;9.33;;;6.00;;
13197;SDS011;6664;52.514;13.440;2023-01-09T08:36:17;8.13;;;6.53;;
13197;SDS011;6664;52.514;13.440;2023-01-09T08:39:03;14.23;;;7.30;;
13197;SDS011;6664;52.514;13.440;2023-01-09T08:41:51;10.53;;;5.97;;
13197;SDS011;6664;52.514;13.440;2023-01-09T08:44:55;7.63;;;6.23;;
13197;SDS011;6664;52.514;13.440;2023-01-09T08:47:59;11.00;;;7.20;;
13197;SDS011;6664;52.514;13.440;2023-01-09T08:50:45;8.47;;;6.40;;
13197;SDS011;6664;52.514;13.440;2023-01-09T08:53:30;12.57;;;6.87;;
13197;SDS011;6664;52.514;13.440;2023-01-09T08:56:16;6.93;;;5.67;;
13197;SDS011;6664;52.514;13.440;2023-01-09T08:59:04;10.60;;;5.53;;
13197;SDS011;6664;52.514;13.440;2023-01-09T09:01:49;12.70;;;7.43;;
13197;SDS011;6664;52.514;13.440;2023-01-09T09:04:36;10.97;;;6.27;;
13197;SDS011;6664;52.514;13.440;2023-01-09T09:07:21;9.13;;;6.50;;
13197;SDS011;6664;52.514;13.440;2023-01-09T09:10:10;9.37;;;6.37;;
13197;SDS011;6664;52.514;13.440;2023-01-09T09:12:56;8.97;;;6.17;;
13197;SDS011;6664;52.514;13.440;2023-01-09T09:15:45;9.47;;;6.53;;
13197;SDS011;6664;52.514;13.440;2023-01-09T09:18:31;10.77;;;6.70;;
13197;SDS011;6664;52.514;13.440;2023-01-09T09:21:21;10.37;;;6.03;;
13197;SDS011;6664;52.514;13.440;2023-01-09T09:24:06;8.53;;;6.27;;
13197;SDS011;6664;52.514;13.440;2023-01-09T09:26:53;11.80;;;7.40;;
13197;SDS011;6664;52.514;13.440;2023-01-09T09:29:38;12.43;;;6.63;;
13197;SDS011;6664;52.514;13.440;2023-01-09T09:32:24;10.30;;;6.17;;
13197;SDS011;6664;52.514;13.440;2023-01-09T09:35:10;11.90;;;6.80;;
13197;SDS011;6664;52.514;13.440;2023-01-09T09:37:56;11.17;;;6.53;;
13197;SDS011;6664;52.514;13.440;2023-01-09T09:44:19;7.70;;;5.67;;
13197;SDS011;6664;52.514;13.440;2023-01-09T09:53:35;11.37;;;6.07;;
13197;SDS011;6664;52.514;13.440;2023-01-09T09:56:27;11.00;;;7.47;;
13197;SDS011;6664;52.514;13.440;2023-01-09T09:59:20;9.27;;;5.97;;
13197;SDS011;6664;52.514;13.440;2023-01-09T10:02:20;9.23;;;6.27;;
13197;SDS011;6664;52.514;13.440;2023-01-09T10:08:55;10.07;;;6.40;;
13197;SDS011;6664;52.514;13.440;2023-01-09T10:11:42;8.30;;;6.03;;
13197;SDS011;6664;52.514;13.440;2023-01-09T10:14:29;9.00;;;6.63;;
13197;SDS011;6664;52.514;13.440;2023-01-09T10:17:22;16.80;;;6.20;;
13197;SDS011;6664;52.514;13.440;2023-01-09T10:20:31;9.20;;;5.90;;
13197;SDS011;6664;52.514;13.440;2023-01-09T10:23:23;8.30;;;5.20;;
13197;SDS011;6664;52.514;13.440;2023-01-09T10:26:37;9.77;;;5.53;;
13197;SDS011;6664;52.514;13.440;2023-01-09T10:29:40;6.20;;;4.37;;
13197;SDS011;6664;52.514;13.440;2023-01-09T10:38:33;9.90;;;6.13;;
13197;SDS011;6664;52.514;13.440;2023-01-09T10:48:11;6.67;;;4.40;;
13197;SDS011;6664;52.514;13.440;2023-01-09T10:51:24;5.70;;;4.37;;
13197;SDS011;6664;52.514;13.440;2023-01-09T10:54:23;5.17;;;4.50;;
13197;SDS011;6664;52.514;13.440;2023-01-09T10:57:11;7.37;;;4.80;;
13197;SDS011;6664;52.514;13.440;2023-01-09T11:00:05;4.90;;;3.97;;
13197;SDS011;6664;52.514;13.440;2023-01-09T11:02:52;4.77;;;3.90;;
13197;SDS011;6664;52.514;13.440;2023-01-09T11:05:39;4.53;;;4.13;;
13197;SDS011;6664;52.514;13.440;2023-01-09T11:11:49;4.60;;;3.67;;
13197;SDS011;6664;52.514;13.440;2023-01-09T11:14:31;3.90;;;3.60;;
13197;SDS011;6664;52.514;13.440;2023-01-09T11:17:17;6.40;;;3.60;;
13197;SDS011;6664;52.514;13.440;2023-01-09T11:20:06;3.70;;;3.10;;
13197;SDS011;6664;52.514;13.440;2023-01-09T11:23:02;6.50;;;4.50;;
13197;SDS011;6664;52.514;13.440;2023-01-09T11:25:52;3.07;;;2.80;;
13197;SDS011;6664;52.514;13.440;2023-01-09T11:28:41;3.60;;;3.30;;
13197;SDS011;6664;52.514;13.440;2023-01-09T11:31:26;5.00;;;3.70;;
13197;SDS011;6664;52.514;13.440;2023-01-09T11:34:14;4.07;;;3.40;;
13197;SDS011;6664;52.514;13.440;2023-01-09T11:37:11;3.40;;;3.00;;
13197;SDS011;6664;52.514;13.440;2023-01-09T11:40:02;5.03;;;2.93;;
13197;SDS011;6664;52.514;13.440;2023-01-09T11:46:07;3.70;;;3.20;;
13197;SDS011;6664;52.514;13.440;2023-01-09T11:48:58;3.83;;;2.87;;
13197;SDS011;6664;52.514;13.440;2023-01-09T11:52:02;3.33;;;3.10;;
13197;SDS011;6664;52.514;13.440;2023-01-09T11:54:58;4.00;;;2.73;;
13197;SDS011;6664;52.514;13.440;2023-01-09T11:57:47;2.90;;;2.60;;
13197;SDS011;6664;52.514;13.440;2023-01-09T12:00:43;2.80;;;2.57;;
13197;SDS011;6664;52.514;13.440;2023-01-09T12:10:01;2.33;;;2.17;;
13197;SDS011;6664;52.514;13.440;2023-01-09T12:26:18;2.60;;;1.93;;
13197;SDS011;6664;52.514;13.440;2023-01-09T12:31:56;2.03;;;1.80;;
13197;SDS011;6664;52.514;13.440;2023-01-09T12:44:04;1.33;;;1.23;;
13197;SDS011;6664;52.514;13.440;2023-01-09T12:53:22;1.53;;;1.33;;
13197;SDS011;6664;52.514;13.440;2023-01-09T12:56:40;1.77;;;1.50;;
13197;SDS011;6664;52.514;13.440;2023-01-09T12:59:30;1.70;;;1.60;;
13197;SDS011;6664;52.514;13.440;2023-01-09T13:02:44;3.43;;;1.80;;
13197;SDS011;6664;52.514;13.440;2023-01-09T13:05:57;2.60;;;1.77;;
13197;SDS011;6664;52.514;13.440;2023-01-09T13:08:51;3.53;;;1.47;;
13197;SDS011;6664;52.514;13.440;2023-01-09T13:20:52;4.13;;;1.57;;
13197;SDS011;6664;52.514;13.440;2023-01-09T13:26:46;4.33;;;1.37;;
13197;SDS011;6664;52.514;13.440;2023-01-09T13:29:39;2.37;;;1.33;;
13197;SDS011;6664;52.514;13.440;2023-01-09T13:32:35;2.50;;;1.20;;
13197;SDS011;6664;52.514;13.440;2023-01-09T13:35:32;1.93;;;1.10;;
13197;SDS011;6664;52.514;13.440;2023-01-09T13:38:31;4.43;;;1.60;;
13197;SDS011;6664;52.514;13.440;2023-01-09T13:41:25;1.33;;;1.23;;
13197;SDS011;6664;52.514;13.440;2023-01-09T13:44:31;9.00;;;1.73;;
13197;SDS011;6664;52.514;13.440;2023-01-09T13:47:25;5.60;;;1.37;;
13197;SDS011;6664;52.514;13.440;2023-01-09T13:50:20;1.43;;;1.30;;
13197;SDS011;6664;52.514;13.440;2023-01-09T13:58:55;3.63;;;1.23;;
13197;SDS011;6664;52.514;13.440;2023-01-09T14:01:43;3.17;;;1.63;;
13197;SDS011;6664;52.514;13.440;2023-01-09T14:04:43;1.00;;;1.00;;
13197;SDS011;6664;52.514;13.440;2023-01-09T14:07:32;3.83;;;1.43;;
13197;SDS011;6664;52.514;13.440;2023-01-09T14:13:12;1.87;;;1.20;;
13197;SDS011;6664;52.514;13.440;2023-01-09T14:16:05;1.20;;;1.10;;
13197;SDS011;6664;52.514;13.440;2023-01-09T14:18:59;1.50;;;1.23;;
13197;SDS011;6664;52.514;13.440;2023-01-09T14:21:53;1.40;;;1.30;;
13197;SDS011;6664;52.514;13.440;2023-01-09T14:24:43;1.40;;;1.30;;
13197;SDS011;6664;52.514;13.440;2023-01-09T14:33:36;18.80;;;1.77;;
13197;SDS011;6664;52.514;13.440;2023-01-09T14:36:22;2.30;;;1.27;;
13197;SDS011;6664;52.514;13.440;2023-01-09T14:39:13;3.30;;;0.93;;
13197;SDS011;6664;52.514;13.440;2023-01-09T14:42:00;5.10;;;1.10;;
13197;SDS011;6664;52.514;13.440;2023-01-09T14:47:49;1.47;;;1.13;;
13197;SDS011;6664;52.514;13.440;2023-01-09T14:50:46;1.40;;;1.30;;
13197;SDS011;6664;52.514;13.440;2023-01-09T14:53:38;1.47;;;1.30;;
13197;SDS011;6664;52.514;13.440;2023-01-09T14:56:27;2.03;;;1.70;;
13197;SDS011;6664;52.514;13.440;2023-01-09T14:59:15;3.40;;;1.23;;
13197;SDS011;6664;52.514;13.440;2023-01-09T15:02:01;3.50;;;1.43;;
13197;SDS011;6664;52.514;13.440;2023-01-09T15:04:47;2.90;;;1.50;;
13197;SDS011;6664;52.514;13.440;2023-01-09T15:07:33;6.37;;;1.70;;
13197;SDS011;6664;52.514;13.440;2023-01-09T15:10:26;1.30;;;1.20;;
13197;SDS011;6664;52.514;13.440;2023-01-09T15:13:18;1.77;;;1.30;;
13197;SDS011;6664;52.514;13.440;2023-01-09T15:16:17;2.20;;;1.27;;
13197;SDS011;6664;52.514;13.440;2023-01-09T15:19:06;3.90;;;1.60;;
13197;SDS011;6664;52.514;13.440;2023-01-09T15:21:57;1.50;;;1.40;;
13197;SDS011;6664;52.514;13.440;2023-01-09T15:24:48;1.53;;;1.33;;
13197;SDS011;6664;52.514;13.440;2023-01-09T15:27:34;1.73;;;1.53;;
13197;SDS011;6664;52.514;13.440;2023-01-09T15:30:32;11.30;;;1.80;;
13197;SDS011;6664;52.514;13.440;2023-01-09T15:33:19;4.20;;;1.83;;
13197;SDS011;6664;52.514;13.440;2023-01-09T15:36:10;1.93;;;1.70;;
13197;SDS011;6664;52.514;13.440;2023-01-09T15:39:05;6.10;;;2.23;;
13197;SDS011;6664;52.514;13.440;2023-01-09T15:41:53;3.47;;;2.63;;
13197;SDS011;6664;52.514;13.440;2023-01-09T15:44:58;2.80;;;2.00;;
13197;SDS011;6664;52.514;13.440;2023-01-09T15:47:45;6.97;;;2.60;;
13197;SDS011;6664;52.514;13.440;2023-01-09T15:50:32;2.83;;;2.57;;
13197;SDS011;6664;52.514;13.440;2023-01-09T15:53:21;5.10;;;2.63;;
13197;SDS011;6664;52.514;13.440;2023-01-09T15:56:25;7.57;;;2.07;;
13197;SDS011;6664;52.514;13.440;2023-01-09T15:59:21;4.60;;;2.57;;
13197;SDS011;6664;52.514;13.440;2023-01-09T16:02:12;5.20;;;2.10;;
13197;SDS011;6664;52.514;13.440;2023-01-09T16:05:17;4.70;;;2.10;;
13197;SDS011;6664;52.514;13.440;2023-01-09T16:08:04;2.60;;;1.73;;
13197;SDS011;6664;52.514;13.440;2023-01-09T16:11:03;3.37;;;1.97;;
13197;SDS011;6664;52.514;13.440;2023-01-09T16:13:54;4.87;;;2.53;;
13197;SDS011;6664;52.514;13.440;2023-01-09T16:16:41;1.73;;;1.63;;
13197;SDS011;6664;52.514;13.440;2023-01-09T16:22:30;1.83;;;1.67;;
13197;SDS011;6664;52.514;13.440;2023-01-09T16:28:19;1.73;;;1.63;;
13197;SDS011;6664;52.514;13.440;2023-01-09T16:34:10;2.20;;;1.63;;
13197;SDS011;6664;52.514;13.440;2023-01-09T16:36:57;2.40;;;2.00;;
13197;SDS011;6664;52.514;13.440;2023-01-09T16:43:07;2.93;;;2.03;;
13197;SDS011;6664;52.514;13.440;2023-01-09T16:46:00;2.27;;;1.73;;
13197;SDS011;6664;52.514;13.440;2023-01-09T16:48:49;2.37;;;1.40;;
13197;SDS011;6664;52.514;13.440;2023-01-09T16:51:35;5.00;;;1.57;;
13197;SDS011;6664;52.514;13.440;2023-01-09T16:54:20;4.67;;;1.67;;
13197;SDS011;6664;52.514;13.440;2023-01-09T16:57:07;4.43;;;1.63;;
13197;SDS011;6664;52.514;13.440;2023-01-09T16:59:56;2.40;;;1.73;;
13197;SDS011;6664;52.514;13.440;2023-01-09T17:02:44;2.20;;;1.60;;
13197;SDS011;6664;52.514;13.440;2023-01-09T17:05:30;6.40;;;1.60;;
13197;SDS011;6664;52.514;13.440;2023-01-09T17:08:18;3.07;;;1.77;;
13197;SDS011;6664;52.514;13.440;2023-01-09T17:11:07;2.03;;;1.80;;
13197;SDS011;6664;52.514;13.440;2023-01-09T17:14:03;2.27;;;1.23;;
13197;SDS011;6664;52.514;13.440;2023-01-09T17:16:50;3.00;;;1.93;;
13197;SDS011;6664;52.514;13.440;2023-01-09T17:19:38;2.97;;;1.50;;
13197;SDS011;6664;52.514;13.440;2023-01-09T17:22:24;2.10;;;1.60;;
13197;SDS011;6664;52.514;13.440;2023-01-09T17:25:12;3.17;;;2.00;;
13197;SDS011;6664;52.514;13.440;2023-01-09T17:28:17;4.17;;;1.70;;
13197;SDS011;6664;52.514;13.440;2023-01-09T17:31:19;1.73;;;1.33;;
13197;SDS011;6664;52.514;13.440;2023-01-09T17:34:05;1.50;;;1.27;;
13197;SDS011;6664;52.514;13.440;2023-01-09T17:36:50;1.60;;;1.50;;
13197;SDS011;6664;52.514;13.440;2023-01-09T17:39:39;3.83;;;1.40;;
13197;SDS011;6664;52.514;13.440;2023-01-09T17:42:25;2.57;;;1.80;;
13197;SDS011;6664;52.514;13.440;2023-01-09T17:45:13;2.40;;;2.13;;
13197;SDS011;6664;52.514;13.440;2023-01-09T17:48:01;4.43;;;1.63;;
13197;SDS011;6664;52.514;13.440;2023-01-09T17:50:49;7.27;;;1.93;;
13197;SDS011;6664;52.514;13.440;2023-01-09T17:53:38;3.53;;;2.63;;
13197;SDS011;6664;52.514;13.440;2023-01-09T17:56:24;3.70;;;2.30;;
13197;SDS011;6664;52.514;13.440;2023-01-09T17:59:16;5.20;;;1.83;;
13197;SDS011;6664;52.514;13.440;2023-01-09T18:02:11;1.20;;;1.10;;
13197;SDS011;6664;52.514;13.440;2023-01-09T18:05:00;4.53;;;1.67;;
13197;SDS011;6664;52.514;13.440;2023-01-09T18:07:46;2.50;;;1.70;;
13197;SDS011;6664;52.514;13.440;2023-01-09T18:10:31;2.73;;;1.33;;
13197;SDS011;6664;52.514;13.440;2023-01-09T18:13:17;4.10;;;1.97;;
13197;SDS011;6664;52.514;13.440;2023-01-09T18:16:03;4.03;;;1.80;;
13197;SDS011;6664;52.514;13.440;2023-01-09T18:18:54;2.00;;;1.63;;
13197;SDS011;6664;52.514;13.440;2023-01-09T18:21:43;1.90;;;1.57;;
13197;SDS011;6664;52.514;13.440;2023-01-09T18:24:30;1.70;;;1.60;;
13197;SDS011;6664;52.514;13.440;2023-01-09T18:27:16;1.57;;;1.47;;
13197;SDS011;6664;52.514;13.440;2023-01-09T18:30:02;1.90;;;1.57;;
13197;SDS011;6664;52.514;13.440;2023-01-09T18:32:50;1.90;;;1.50;;
13197;SDS011;6664;52.514;13.440;2023-01-09T18:35:36;5.17;;;1.60;;
13197;SDS011;6664;52.514;13.440;2023-01-09T18:38:21;1.63;;;1.53;;
13197;SDS011;6664;52.514;13.440;2023-01-09T18:41:07;3.17;;;1.83;;
13197;SDS011;6664;52.514;13.440;2023-01-09T18:43:57;3.23;;;1.80;;
13197;SDS011;6664;52.514;13.440;2023-01-09T18:46:44;2.30;;;2.10;;
13197;SDS011;6664;52.514;13.440;2023-01-09T18:49:30;3.47;;;1.97;;
13197;SDS011;6664;52.514;13.440;2023-01-09T18:52:16;5.07;;;1.83;;
13197;SDS011;6664;52.514;13.440;2023-01-09T18:55:01;1.70;;;1.60;;
13197;SDS011;6664;52.514;13.440;2023-01-09T18:57:48;1.43;;;1.30;;
13197;SDS011;6664;52.514;13.440;2023-01-09T19:00:36;2.13;;;1.40;;
13197;SDS011;6664;52.514;13.440;2023-01-09T19:03:21;1.60;;;1.50;;
13197;SDS011;6664;52.514;13.440;2023-01-09T19:06:07;2.47;;;1.50;;
13197;SDS011;6664;52.514;13.440;2023-01-09T19:08:53;7.13;;;2.17;;
13197;SDS011;6664;52.514;13.440;2023-01-09T19:11:41;3.13;;;1.97;;
13197;SDS011;6664;52.514;13.440;2023-01-09T19:14:29;2.20;;;1.90;;
13197;SDS011;6664;52.514;13.440;2023-01-09T19:17:17;3.57;;;1.70;;
13197;SDS011;6664;52.514;13.440;2023-01-09T19:20:03;4.33;;;1.60;;
13197;SDS011;6664;52.514;13.440;2023-01-09T19:22:50;2.23;;;1.93;;
13197;SDS011;6664;52.514;13.440;2023-01-09T19:25:35;5.00;;;1.97;;
13197;SDS011;6664;52.514;13.440;2023-01-09T19:28:25;1.63;;;1.30;;